Time;durP1;ratioP1;P1;durP2;ratioP2;P2;SDS_P1;SDS_P2;PMS_P1;PMS_P2;Temp;Humidity;BMP_temperature;BMP_pressure;BME280_temperature;BME280_humidity;BME280_pressure;Samples;Min_cycle;Max_cycle;Signal;HPM_P1;HPM_P2
2021/04/29 00:00:16;;;;;;;17.10;12.70;;;307.80;2304.00;;;;;;5038138;28;20074;-83
2021/04/29 00:02:49;;;;;;;17.00;14.52;;;307.90;2304.00;;;;;;5038190;28;20464;-81
2021/04/29 00:05:43;;;;;;;16.83;13.88;;;308.00;2304.00;;;;;;5037676;28;20043;-82
2021/04/29 00:08:12;;;;;;;15.40;12.18;;;307.80;2304.00;;;;;;5038304;28;20480;-81
2021/04/29 00:10:39;;;;;;;14.52;12.95;;;307.80;2304.00;;;;;;5038221;28;20044;-83
2021/04/29 00:13:40;;;;;;;;;;;;;;;;;;;;;
2021/04/29 00:16:09;;;;;;;17.45;13.18;;;307.60;2304.00;;;;;;5049397;28;20453;-83
2021/04/29 00:19:19;;;;;;;18.23;13.32;;;307.70;2304.00;;;;;;5008033;28;20109;-83
2021/04/29 00:25:59;;;;;;;23.52;15.15;;;307.50;2304.00;;;;;;4974873;28;20050;-82
2021/04/29 00:36:07;;;;;;;18.90;14.63;;;307.30;2304.00;;;;;;5026319;28;20072;-83
2021/04/29 00:45:24;;;;;;;20.23;14.45;;;307.30;2304.00;;;;;;4974415;28;20062;-82
2021/04/29 00:48:42;;;;;;;20.23;14.52;;;307.30;2304.00;;;;;;5033518;28;20374;-83
2021/04/29 00:51:44;;;;;;;19.65;14.25;;;307.30;2304.00;;;;;;4947833;28;20027;-82
2021/04/29 00:54:27;;;;;;;17.55;12.43;;;307.20;2304.00;;;;;;4957590;28;20491;-82
2021/04/29 00:57:35;;;;;;;17.45;13.25;;;307.20;2304.00;;;;;;5037379;28;20464;-83
2021/04/29 01:01:13;;;;;;;19.48;13.50;;;282.50;2278.40;;;;;;5054536;28;20024;-81
2021/04/29 01:04:23;;;;;;;21.00;15.70;;;282.50;2278.40;;;;;;5040543;28;20054;-81
2021/04/29 01:08:05;;;;;;;17.38;14.68;;;282.40;2278.40;;;;;;5060425;28;20017;-81
2021/04/29 01:11:06;;;;;;;21.35;14.95;;;282.50;2278.40;;;;;;5023014;28;20033;-83
2021/04/29 01:13:46;;;;;;;21.88;15.25;;;282.50;2278.40;;;;;;5036983;28;20102;-81
2021/04/29 01:17:01;;;;;;;22.67;14.57;;;282.40;2278.40;;;;;;5036749;28;20025;-83
2021/04/29 01:20:09;;;;;;;21.77;16.05;;;282.40;2278.40;;;;;;5054301;28;20029;-83
2021/04/29 01:23:35;;;;;;;21.58;14.30;;;282.40;2278.40;;;;;;4974288;28;20048;-81
2021/04/29 01:29:54;;;;;;;;;;;;;;;;;;;;;
2021/04/29 01:33:00;;;;;;;19.60;15.05;;;282.20;2278.40;;;;;;5012446;28;20425;-83
2021/04/29 01:36:18;;;;;;;18.88;13.80;;;282.20;2278.40;;;;;;5035178;28;20053;-82
2021/04/29 01:39:21;;;;;;;20.13;15.13;;;282.10;2278.40;;;;;;5032711;28;20372;-84
2021/04/29 01:42:13;;;;;;;19.20;14.82;;;282.10;2278.40;;;;;;5035699;28;20018;-81
2021/04/29 01:45:01;;;;;;;20.95;14.35;;;282.20;2278.40;;;;;;5052772;28;20028;-82
2021/04/29 01:47:57;;;;;;;22.27;13.40;;;282.30;2278.40;;;;;;5036263;28;20032;-82
2021/04/29 01:50:45;;;;;;;;;;;;;;;;;;;;;
2021/04/29 01:54:16;;;;;;;17.95;13.23;;;282.00;2278.40;;;;;;5052698;28;20468;-82
2021/04/29 01:57:02;;;;;;;22.85;16.08;;;281.80;2278.40;;;;;;5036066;28;20020;-82
2021/04/29 01:59:30;;;;;;;23.38;16.30;;;281.70;2278.40;;;;;;5036001;28;20021;-82
2021/04/29 02:02:34;;;;;;;;;;;;;;;;;;;;;
2021/04/29 02:05:06;;;;;;;18.33;13.17;;;256.90;2252.80;;;;;;5025543;28;20388;-83
2021/04/29 02:08:10;;;;;;;17.25;12.82;;;281.80;2278.40;;;;;;5036346;28;20396;-82
2021/04/29 02:11:54;;;;;;;18.50;13.40;;;281.70;2278.40;;;;;;5051325;28;20033;-81
2021/04/29 02:15:34;;;;;;;;;;;;;;;;;;;;;
2021/04/29 02:19:19;;;;;;;15.75;12.65;;;256.80;2252.80;;;;;;5000111;28;20025;-84
2021/04/29 02:22:14;;;;;;;16.65;12.88;;;256.70;2252.80;;;;;;5028803;28;20018;-82
2021/04/29 02:25:57;;;;;;;17.02;13.40;;;256.40;2252.80;;;;;;4971283;28;20027;-83
2021/04/29 02:28:44;;;;;;;16.70;12.90;;;256.50;2252.80;;;;;;4952975;29;20031;-83
2021/04/29 02:31:51;;;;;;;17.73;13.23;;;256.30;2252.80;;;;;;4954192;29;20056;-82
2021/04/29 02:34:19;;;;;;;20.30;13.50;;;256.40;2252.80;;;;;;4949065;29;20467;-81
2021/04/29 02:36:47;;;;;;;17.90;12.52;;;256.10;2252.80;;;;;;4956979;28;20495;-81
2021/04/29 02:39:14;;;;;;;19.27;13.85;;;256.20;2252.80;;;;;;4972510;28;20514;-82
2021/04/29 02:42:29;;;;;;;17.25;12.60;;;231.30;2252.80;;;;;;4972358;28;20031;-82
2021/04/29 02:46:03;;;;;;;18.95;13.50;;;256.50;2252.80;;;;;;4862509;29;20467;-83
2021/04/29 02:49:10;;;;;;;;;;;256.00;2252.80;;;;;;4844854;29;20022;-81
2021/04/29 02:52:51;;;;;;;17.95;13.50;;;231.30;2252.80;;;;;;4843488;29;19904;-81
2021/04/29 02:56:18;;;;;;;22.25;14.40;;;231.20;2252.80;;;;;;4790049;29;20114;-83
2021/04/29 02:59:50;;;;;;;21.20;15.27;;;231.30;2252.80;;;;;;4788926;30;20353;-83
2021/04/29 03:02:58;;;;;;;23.77;15.60;;;231.10;2252.80;;;;;;4772833;29;20058;-82
2021/04/29 03:06:28;;;;;;;21.30;15.02;;;231.00;2252.80;;;;;;4772031;30;20078;-84
2021/04/29 03:09:28;;;;;;;19.60;14.35;;;231.00;2252.80;;;;;;4771642;30;20086;-85
2021/04/29 03:12:46;;;;;;;18.90;14.30;;;231.10;2252.80;;;;;;4719045;30;20037;-83
2021/04/29 03:16:18;;;;;;;18.80;14.50;;;231.10;2252.80;;;;;;4718365;30;20029;-81
2021/04/29 03:20:07;;;;;;;17.85;14.32;;;231.00;2252.80;;;;;;4666764;30;20046;-82
2021/04/29 03:23:48;;;;;;;24.23;17.08;;;231.00;2252.80;;;;;;4668713;30;20480;-83
2021/04/29 03:27:15;;;;;;;27.67;17.77;;;231.00;2252.80;;;;;;4701244;30;20175;-81
2021/04/29 03:30:49;;;;;;;24.00;18.40;;;231.10;2252.80;;;;;;4653785;30;20049;-82
2021/04/29 03:33:58;;;;;;;26.00;16.23;;;231.00;2252.80;;;;;;4649668;30;20130;-82
2021/04/29 03:37:09;;;;;;;25.60;14.98;;;231.00;2252.80;;;;;;4632219;31;20038;-83
2021/04/29 03:40:06;;;;;;;25.77;16.42;;;231.00;2252.80;;;;;;4630772;30;20499;-82
2021/04/29 03:42:49;;;;;;;23.90;14.00;;;230.90;2252.80;;;;;;4649239;30;20057;-82
2021/04/29 03:46:02;;;;;;;20.90;13.95;;;230.90;2252.80;;;;;;4629113;31;20050;-82
2021/04/29 03:48:57;;;;;;;19.30;14.15;;;230.90;2252.80;;;;;;4632863;31;20035;-82
2021/04/29 03:51:54;;;;;;;19.42;13.75;;;231.00;2252.80;;;;;;4643889;30;20024;-82
2021/04/29 03:54:46;;;;;;;26.45;15.35;;;230.90;2252.80;;;;;;4632166;31;20126;-83
2021/04/29 03:57:34;;;;;;;22.85;16.95;;;230.80;2252.80;;;;;;4646898;30;20126;-82
2021/04/29 04:00:00;;;;;;;28.27;17.50;;;230.70;2252.80;;;;;;4659361;30;20138;-83
2021/04/29 04:02:47;;;;;;;30.08;20.70;;;230.90;2252.80;;;;;;4670512;30;20034;-83
2021/04/29 04:05:14;;;;;;;25.15;17.40;;;230.90;2252.80;;;;;;4707509;30;20037;-83
2021/04/29 04:08:03;;;;;;;19.92;15.05;;;230.80;2252.80;;;;;;4747543;30;20055;-84
2021/04/29 04:10:51;;;;;;;26.48;15.02;;;230.70;2252.80;;;;;;4775038;30;20043;-84
2021/04/29 04:13:59;;;;;;;19.65;15.07;;;230.70;2252.80;;;;;;4788651;30;20042;-83
2021/04/29 04:17:19;;;;;;;20.38;14.63;;;230.70;2252.80;;;;;;4770704;30;20126;-81
2021/04/29 04:19:54;;;;;;;20.50;15.10;;;230.70;2252.80;;;;;;4800316;29;20041;-82
2021/04/29 04:22:26;;;;;;;18.90;15.30;;;230.80;2252.80;;;;;;4807158;29;20080;-84
2021/04/29 04:25:34;;;;;;;29.70;17.70;;;230.80;2252.80;;;;;;4809198;29;20049;-83
2021/04/29 04:28:50;;;;;;;28.13;17.27;;;230.60;2252.80;;;;;;4820420;29;20041;-83
2021/04/29 04:31:43;;;;;;;32.05;19.40;;;230.50;2252.80;;;;;;4887657;29;20091;-84
2021/04/29 04:34:14;;;;;;;26.33;17.80;;;230.50;2252.80;;;;;;4917270;29;20036;-84
2021/04/29 04:36:48;;;;;;;27.20;18.00;;;230.50;2252.80;;;;;;4916879;29;20037;-84
2021/04/29 04:39:33;;;;;;;28.25;18.08;;;230.50;2252.80;;;;;;4916939;29;20440;-82
2021/04/29 04:42:08;;;;;;;22.20;17.02;;;230.50;2252.80;;;;;;4931474;29;20107;-84
2021/04/29 04:45:14;;;;;;;26.90;18.83;;;231.30;2252.80;;;;;;4919767;29;20036;-84
2021/04/29 04:48:05;;;;;;;29.00;18.63;;;230.70;2252.80;;;;;;4939327;28;20058;-84
2021/04/29 04:50:35;;;;;;;26.30;17.95;;;230.60;2252.80;;;;;;4987651;28;20113;-84
2021/04/29 04:53:21;;;;;;;30.23;18.60;;;230.90;2252.80;;;;;;4993584;28;20037;-84
2021/04/29 04:56:43;;;;;;;28.08;19.98;;;230.90;2252.80;;;;;;4972981;28;20113;-84
2021/04/29 04:59:21;;;;;;;27.45;19.58;;;230.90;2252.80;;;;;;4943412;29;20023;-84
2021/04/29 05:02:25;;;;;;;26.95;18.73;;;231.00;2252.80;;;;;;4926768;29;20064;-84
2021/04/29 05:05:08;;;;;;;27.67;19.63;;;230.90;2252.80;;;;;;4879804;29;20060;-85
2021/04/29 05:07:34;;;;;;;27.03;19.80;;;231.00;2252.80;;;;;;4875327;29;20029;-78
2021/04/29 05:10:27;;;;;;;27.42;20.23;;;231.20;2252.80;;;;;;4881899;29;20415;-82
2021/04/29 05:13:35;;;;;;;28.33;19.55;;;231.30;2252.80;;;;;;4896756;29;20044;-84
2021/04/29 05:17:02;;;;;;;29.45;20.75;;;231.30;2252.80;;;;;;4897369;29;20063;-81
2021/04/29 05:20:27;;;;;;;30.77;22.02;;;256.20;2252.80;;;;;;4828168;29;20026;-83
2021/04/29 05:23:59;;;;;;;32.15;21.30;;;256.10;2252.80;;;;;;4823030;29;20031;-83
2021/04/29 05:26:47;;;;;;;44.47;30.13;;;256.20;2252.80;;;;;;4787504;30;20407;-82
2021/04/29 05:29:15;;;;;;;75.53;54.85;;;256.40;2252.80;;;;;;4795942;29;20707;-82
2021/04/29 05:31:44;;;;;;;33.00;26.98;;;256.40;2252.80;;;;;;4864416;29;20037;-80
2021/04/29 05:34:10;;;;;;;46.88;39.33;;;256.40;2252.80;;;;;;4885483;29;20036;-80
2021/04/29 05:36:42;;;;;;;48.65;36.75;;;256.50;2252.80;;;;;;4912583;29;20123;-83
2021/04/29 05:39:13;;;;;;;62.35;43.75;;;256.60;2252.80;;;;;;4934828;29;20039;-80
2021/04/29 05:42:02;;;;;;;51.38;35.33;;;256.70;2252.80;;;;;;4934355;29;20480;-81
2021/04/29 05:45:14;;;;;;;30.05;21.40;;;256.80;2252.80;;;;;;4897506;29;20041;-82
2021/04/29 05:51:14;;;;;;;;;;;281.60;2278.40;;;;;;4957331;28;20029;-78
2021/04/29 06:00:27;;;;;;;24.38;16.88;;;281.90;2278.40;;;;;;5034185;28;20035;-81
2021/04/29 06:06:58;;;;;;;21.65;16.33;;;282.20;2278.40;;;;;;4949160;29;20027;-83
2021/04/29 06:10:09;;;;;;;23.23;15.80;;;282.30;2278.40;;;;;;4951879;29;20027;-81
2021/04/29 06:12:45;;;;;;;25.48;17.02;;;282.50;2278.40;;;;;;4940312;29;20426;-82
2021/04/29 06:16:10;;;;;;;24.35;18.75;;;307.20;2304.00;;;;;;4952302;29;20011;-83
2021/04/29 06:19:21;;;;;;;22.05;16.35;;;307.30;2304.00;;;;;;4939556;29;20027;-81
2021/04/29 06:21:49;;;;;;;21.30;16.05;;;307.50;2304.00;;;;;;4948680;29;20030;-82
2021/04/29 06:24:23;;;;;;;24.55;17.55;;;307.70;2304.00;;;;;;4936818;29;20034;-81
2021/04/29 06:27:31;;;;;;;22.60;17.00;;;307.60;2304.00;;;;;;4953083;29;20027;-81
2021/04/29 06:29:57;;;;;;;28.02;17.30;;;307.90;2304.00;;;;;;4945176;28;20467;-81
2021/04/29 06:32:26;;;;;;;24.25;17.45;;;308.10;2304.00;;;;;;5032277;28;20087;-82
2021/04/29 06:35:12;;;;;;;21.75;17.92;;;332.80;2329.60;;;;;;5033545;28;20032;-84
2021/04/29 06:37:38;;;;;;;;;;;308.00;2304.00;;;;;;5016025;28;20030;-82
2021/04/29 06:40:06;;;;;;;23.90;16.92;;;308.00;2304.00;;;;;;5032279;28;20349;-83
2021/04/29 06:42:39;;;;;;;29.30;20.10;;;308.10;2304.00;;;;;;5033563;28;20148;-80
2021/04/29 06:45:09;;;;;;;23.77;17.92;;;332.80;2329.60;;;;;;5032897;28;20471;-82
2021/04/29 06:47:35;;;;;;;19.27;14.55;;;332.90;2329.60;;;;;;5015776;28;20024;-82
2021/04/29 06:50:01;;;;;;;16.75;13.18;;;333.20;2329.60;;;;;;5034258;28;20021;-82
2021/04/29 06:52:33;;;;;;;16.95;12.50;;;333.30;2329.60;;;;;;5034070;28;20016;-82
2021/04/29 06:54:59;;;;;;;17.95;12.50;;;333.40;2329.60;;;;;;5018989;28;20032;-81
2021/04/29 06:57:25;;;;;;;16.75;10.82;;;333.50;2329.60;;;;;;5034162;28;20024;-82
2021/04/29 06:59:51;;;;;;;13.65;10.88;;;333.60;2329.60;;;;;;5035114;28;20131;-82
2021/04/29 07:02:17;;;;;;;16.38;11.00;;;333.60;2329.60;;;;;;5019086;28;20025;-81
2021/04/29 07:04:46;;;;;;;15.00;11.43;;;333.70;2329.60;;;;;;5035311;28;20088;-82
2021/04/29 07:07:13;;;;;;;18.98;14.63;;;358.40;2329.60;;;;;;5035242;28;20031;-80
2021/04/29 07:09:38;;;;;;;19.80;12.80;;;358.60;2329.60;;;;;;5035433;28;20117;-80
2021/04/29 07:12:05;;;;;;;18.13;12.82;;;358.80;2329.60;;;;;;5035224;28;20413;-82
2021/04/29 07:14:31;;;;;;;15.90;12.73;;;358.60;2329.60;;;;;;5035369;28;20029;-82
2021/04/29 07:16:57;;;;;;;16.23;12.25;;;358.80;2329.60;;;;;;5035724;28;20102;-83
2021/04/29 07:19:24;;;;;;;38.00;15.85;;;358.80;2329.60;;;;;;5052865;28;20021;-83
2021/04/29 07:21:49;;;;;;;54.38;17.67;;;359.10;2329.60;;;;;;5035158;28;20456;-84
2021/04/29 07:24:15;;;;;;;22.20;14.52;;;359.30;2329.60;;;;;;5035047;28;20036;-81
2021/04/29 07:26:41;;;;;;;19.55;12.02;;;384.10;2329.60;;;;;;5034808;28;20032;-80
2021/04/29 07:29:07;;;;;;;16.98;13.75;;;359.10;2329.60;;;;;;5035746;28;20028;-80
2021/04/29 07:31:33;;;;;;;18.73;14.13;;;384.10;2329.60;;;;;;5038815;28;20021;-78
2021/04/29 07:33:59;;;;;;;17.35;10.38;;;384.30;2329.60;;;;;;5038672;28;20364;-82
2021/04/29 07:36:25;;;;;;;14.35;11.50;;;384.60;2329.60;;;;;;5039095;28;20056;-82
2021/04/29 07:38:51;;;;;;;16.30;12.80;;;384.90;2329.60;;;;;;5056849;28;20017;-81
2021/04/29 07:41:19;;;;;;;15.25;12.00;;;409.60;2355.20;;;;;;5038588;28;20020;-81
2021/04/29 07:43:45;;;;;;;18.10;13.18;;;409.80;2355.20;;;;;;5038922;28;20033;-83
2021/04/29 07:46:11;;;;;;;16.25;12.23;;;410.00;2355.20;;;;;;5038900;28;20531;-81
2021/04/29 07:48:38;;;;;;;16.13;11.60;;;410.20;2355.20;;;;;;5038484;28;20104;-82
2021/04/29 07:51:04;;;;;;;15.50;12.23;;;410.20;2355.20;;;;;;5039240;28;20428;-81
2021/04/29 07:53:30;;;;;;;17.70;12.20;;;410.40;2355.20;;;;;;5056913;28;20052;-82
2021/04/29 07:55:56;;;;;;;15.75;10.35;;;435.30;2355.20;;;;;;5038349;28;20027;-79
2021/04/29 07:58:23;;;;;;;18.55;11.95;;;435.30;2355.20;;;;;;5056586;28;20436;-82
2021/04/29 08:00:49;;;;;;;26.75;16.20;;;435.30;2355.20;;;;;;5038365;28;20048;-80
2021/04/29 08:03:15;;;;;;;16.17;11.93;;;435.50;2355.20;;;;;;5038483;28;20060;-79
2021/04/29 08:05:40;;;;;;;16.05;11.85;;;435.60;2355.20;;;;;;5038700;28;20032;-83
2021/04/29 08:08:06;;;;;;;12.73;10.50;;;435.50;2355.20;;;;;;5056148;28;20017;-79
2021/04/29 08:10:33;;;;;;;31.83;13.10;;;435.60;2355.20;;;;;;5038443;28;20360;-83
2021/04/29 08:12:58;;;;;;;32.17;11.23;;;435.90;2355.20;;;;;;5038048;28;20074;-79
2021/04/29 08:15:24;;;;;;;14.25;9.50;;;436.10;2355.20;;;;;;5037876;28;20025;-79
2021/04/29 08:17:50;;;;;;;19.52;11.02;;;460.90;2380.80;;;;;;5038272;28;20024;-79
2021/04/29 08:20:16;;;;;;;17.63;11.70;;;461.10;2380.80;;;;;;5036903;28;20020;-78
2021/04/29 08:22:42;;;;;;;12.75;10.20;;;461.20;2380.80;;;;;;5054561;28;20070;-79
2021/04/29 08:25:08;;;;;;;13.80;10.27;;;461.10;2380.80;;;;;;5054786;28;20036;-78
2021/04/29 08:27:34;;;;;;;15.35;10.07;;;461.20;2380.80;;;;;;5055902;28;20021;-80
2021/04/29 08:30:00;;;;;;;13.05;9.45;;;461.50;2380.80;;;;;;5054323;28;20027;-79
2021/04/29 08:32:26;;;;;;;16.38;11.55;;;461.70;2380.80;;;;;;5055449;28;20045;-78
2021/04/29 08:34:52;;;;;;;15.48;9.57;;;486.40;2380.80;;;;;;5054499;28;20027;-79
2021/04/29 08:37:18;;;;;;;14.73;8.57;;;486.60;2380.80;;;;;;5055742;28;20409;-78
2021/04/29 08:39:45;;;;;;;14.57;9.60;;;486.50;2380.80;;;;;;5054181;28;20014;-79
2021/04/29 08:42:15;;;;;;;12.73;9.40;;;486.70;2380.80;;;;;;5054769;28;20025;-79
2021/04/29 08:44:41;;;;;;;13.10;7.95;;;486.80;2380.80;;;;;;5055345;28;20074;-78
2021/04/29 08:47:07;;;;;;;12.90;8.75;;;486.80;2380.80;;;;;;5055005;28;20086;-78
2021/04/29 08:49:34;;;;;;;73.18;15.95;;;487.00;2380.80;;;;;;5038052;28;20439;-80
2021/04/29 08:52:00;;;;;;;16.80;9.00;;;486.90;2380.80;;;;;;5036790;28;20523;-80
2021/04/29 08:54:26;;;;;;;18.80;10.20;;;486.80;2380.80;;;;;;5035634;28;20055;-79
2021/04/29 08:56:53;;;;;;;104.10;19.15;;;487.30;2380.80;;;;;;5037038;28;20025;-78
2021/04/29 08:59:19;;;;;;;24.17;10.98;;;512.10;2380.80;;;;;;5055344;28;20101;-78
2021/04/29 09:01:46;;;;;;;16.42;9.55;;;512.30;2380.80;;;;;;5055307;28;20048;-78
2021/04/29 09:04:15;;;;;;;19.95;9.95;;;512.50;2380.80;;;;;;5037567;28;20077;-78
2021/04/29 09:06:44;;;;;;;18.63;8.50;;;512.60;2380.80;;;;;;5055214;28;20020;-78
2021/04/29 09:09:10;;;;;;;9.98;7.28;;;512.80;2380.80;;;;;;5037234;28;20025;-81
2021/04/29 09:11:50;;;;;;;9.55;7.32;;;537.90;2380.80;;;;;;5054519;28;20028;-80
2021/04/29 09:14:28;;;;;;;12.68;7.80;;;537.60;2406.40;;;;;;5054845;28;20032;-76
2021/04/29 09:16:53;;;;;;;10.15;7.05;;;537.90;2406.40;;;;;;5037123;28;20021;-80
2021/04/29 09:19:30;;;;;;;8.68;6.72;;;537.90;2355.20;;;;;;5025503;28;20032;-80
2021/04/29 09:21:59;;;;;;;14.55;8.68;;;537.80;2406.40;;;;;;5033942;28;20108;-80
2021/04/29 09:24:33;;;;;;;14.27;8.60;;;538.10;2355.20;;;;;;5054534;28;20155;-78
2021/04/29 09:27:11;;;;;;;27.55;9.10;;;538.20;2355.20;;;;;;5054620;28;20020;-77
2021/04/29 09:29:54;;;;;;;11.38;7.03;;;538.10;2355.20;;;;;;5036861;28;20063;-78
2021/04/29 09:32:27;;;;;;;;;;;538.30;2355.20;;;;;;5036723;28;20045;-78
2021/04/29 09:34:53;;;;;;;19.15;8.10;;;538.50;2304.00;;;;;;5054718;28;19901;-79
2021/04/29 09:37:31;;;;;;;15.65;7.50;;;563.40;2252.80;;;;;;5037336;28;20074;-78
2021/04/29 09:39:57;;;;;;;11.85;6.47;;;563.70;2227.20;;;;;;5054646;28;20025;-78
2021/04/29 09:42:31;;;;;;;13.07;6.97;;;589.00;2150.40;;;;;;5036581;28;20017;-78
2021/04/29 09:44:58;;;;;;;16.42;6.95;;;588.80;2124.80;;;;;;5036264;28;20052;-79
2021/04/29 09:47:24;;;;;;;14.75;8.70;;;588.80;2124.80;;;;;;5036436;28;20025;-78
2021/04/29 09:49:50;;;;;;;17.00;8.35;;;589.10;2073.60;;;;;;5036427;28;20346;-79
2021/04/29 09:52:19;;;;;;;15.23;7.40;;;589.50;2022.40;;;;;;5036285;28;20120;-78
2021/04/29 09:54:45;;;;;;;13.57;6.13;;;589.70;1920.00;;;;;;5036006;28;20041;-78
2021/04/29 09:57:15;;;;;;;15.65;6.72;;;589.60;1894.40;;;;;;5037291;28;20028;-79
2021/04/29 09:59:55;;;;;;;15.02;7.75;;;614.40;1920.00;;;;;;5036412;28;20044;-79
2021/04/29 10:02:21;;;;;;;14.07;6.75;;;614.60;1894.40;;;;;;5054004;28;20023;-78
2021/04/29 10:04:47;;;;;;;10.00;5.70;;;614.80;1868.80;;;;;;5036263;28;20032;-79
2021/04/29 10:07:15;;;;;;;18.70;7.95;;;614.90;1817.60;;;;;;5036648;28;20027;-78
2021/04/29 10:09:43;;;;;;;17.80;7.32;;;615.20;1817.60;;;;;;5053857;28;20111;-79
2021/04/29 10:12:14;;;;;;;15.65;7.38;;;640.00;1766.40;;;;;;5054118;28;20479;-79
2021/04/29 10:14:47;;;;;;;14.18;6.38;;;640.20;1766.40;;;;;;5035825;28;20036;-82
2021/04/29 10:17:15;;;;;;;13.43;8.20;;;640.20;1689.60;;;;;;5036025;28;20044;-78
2021/04/29 10:19:47;;;;;;;15.38;6.95;;;640.20;1689.60;;;;;;5036071;28;20021;-78
2021/04/29 10:22:13;;;;;;;97.22;15.35;;;640.50;1715.20;;;;;;5035749;28;20116;-78
2021/04/29 10:24:43;;;;;;;21.42;8.07;;;640.60;1664.00;;;;;;5035863;28;20094;-78
2021/04/29 10:27:12;;;;;;;17.40;9.07;;;640.90;1638.40;;;;;;5036063;28;20021;-79
2021/04/29 10:29:38;;;;;;;24.17;8.23;;;665.80;1638.40;;;;;;5053236;28;20074;-78
2021/04/29 10:32:10;;;;;;;17.52;7.60;;;665.70;1638.40;;;;;;5035518;28;20071;-78
2021/04/29 10:34:50;;;;;;;15.75;7.05;;;665.70;1638.40;;;;;;5036540;28;20514;-77
2021/04/29 10:37:23;;;;;;;23.30;12.77;;;665.60;1638.40;;;;;;5035955;28;20063;-79
2021/04/29 10:39:57;;;;;;;18.25;8.57;;;666.00;1587.20;;;;;;5035881;28;20059;-81
2021/04/29 10:42:25;;;;;;;15.45;5.65;;;666.00;1612.80;;;;;;5035573;28;20112;-80
2021/04/29 10:44:52;;;;;;;18.00;8.18;;;666.00;1587.20;;;;;;5035695;28;20036;-79
2021/04/29 10:47:31;;;;;;;24.92;7.18;;;666.50;1587.20;;;;;;5053679;28;20449;-79
2021/04/29 10:50:09;;;;;;;17.67;6.70;;;691.30;1536.00;;;;;;5053332;28;20120;-79
2021/04/29 10:52:59;;;;;;;27.83;7.40;;;691.50;1510.40;;;;;;5035967;28;20059;-78
2021/04/29 10:55:36;;;;;;;12.00;5.25;;;691.60;1459.20;;;;;;5036107;28;20021;-79
2021/04/29 10:58:05;;;;;;;16.27;6.47;;;691.70;1510.40;;;;;;5053362;28;20025;-78
2021/04/29 11:00:34;;;;;;;11.02;5.90;;;691.90;1510.40;;;;;;5036223;28;20483;-79
2021/04/29 11:03:05;;;;;;;16.05;5.07;;;692.10;1459.20;;;;;;5035365;28;20029;-79
2021/04/29 11:05:35;;;;;;;14.07;4.78;;;716.90;1484.80;;;;;;5038170;28;20032;-79
2021/04/29 11:08:09;;;;;;;14.38;5.00;;;717.10;1433.60;;;;;;5039589;28;20029;-78
2021/04/29 11:10:37;;;;;;;12.95;6.55;;;717.10;1408.00;;;;;;5039601;28;20115;-80
2021/04/29 11:13:05;;;;;;;13.18;5.80;;;716.90;1408.00;;;;;;5039478;28;20021;-79
2021/04/29 11:15:38;;;;;;;150.40;30.17;;;717.00;1433.60;;;;;;5039415;28;20056;-79
2021/04/29 11:18:12;;;;;;;31.20;8.65;;;717.30;1433.60;;;;;;5039349;28;20021;-79
2021/04/29 11:20:53;;;;;;;13.25;4.57;;;717.70;1408.00;;;;;;5039282;28;20056;-79
2021/04/29 11:23:27;;;;;;;16.73;6.00;;;717.30;1356.80;;;;;;5039934;28;20352;-80
2021/04/29 11:26:04;;;;;;;21.92;6.63;;;717.20;1356.80;;;;;;5056797;28;20035;-79
2021/04/29 11:28:30;;;;;;;171.45;34.25;;;717.50;1356.80;;;;;;5039243;28;20025;-79
2021/04/29 11:30:56;;;;;;;25.25;7.25;;;742.40;1382.40;;;;;;5056734;28;20025;-79
2021/04/29 11:33:34;;;;;;;11.23;5.43;;;742.50;1356.80;;;;;;5038793;28;20369;-80
2021/04/29 11:36:13;;;;;;;18.77;7.90;;;742.40;1331.20;;;;;;5039359;28;20028;-79
2021/04/29 11:38:39;;;;;;;13.25;5.18;;;742.60;1331.20;;;;;;5038756;28;20468;-79
2021/04/29 11:41:11;;;;;;;14.30;5.47;;;743.00;1331.20;;;;;;5057209;28;20017;-79
2021/04/29 11:43:37;;;;;;;13.88;5.57;;;743.10;1305.60;;;;;;5038845;28;20449;-80
2021/04/29 11:46:02;;;;;;;13.32;6.13;;;742.50;1305.60;;;;;;5038504;28;20028;-78
2021/04/29 11:48:30;;;;;;;17.08;6.07;;;717.20;1356.80;;;;;;5036897;28;20020;-80
2021/04/29 11:50:58;;;;;;;13.43;5.28;;;716.80;1382.40;;;;;;5055322;28;20028;-80
2021/04/29 11:53:29;;;;;;;13.75;5.30;;;691.80;1356.80;;;;;;5053746;28;20024;-80
2021/04/29 11:56:01;;;;;;;11.73;5.78;;;691.60;1382.40;;;;;;5038704;28;20021;-80
2021/04/29 11:58:27;;;;;;;11.10;5.13;;;691.20;1408.00;;;;;;5055399;28;20052;-80
2021/04/29 12:00:54;;;;;;;13.80;5.63;;;666.30;1408.00;;;;;;5056221;28;20351;-79
2021/04/29 12:03:26;;;;;;;21.80;6.85;;;666.40;1459.20;;;;;;5055428;28;20427;-80
2021/04/29 12:05:59;;;;;;;22.87;8.70;;;666.40;1459.20;;;;;;5055485;28;20418;-79
2021/04/29 12:08:28;;;;;;;34.53;7.97;;;666.30;1484.80;;;;;;5055180;28;20063;-79
2021/04/29 12:10:56;;;;;;;42.30;9.82;;;666.20;1433.60;;;;;;5055190;28;20375;-80
2021/04/29 12:13:37;;;;;;;102.28;19.05;;;666.20;1433.60;;;;;;5054702;28;20036;-78
2021/04/29 12:16:06;;;;;;;46.47;12.93;;;666.00;1459.20;;;;;;5036875;28;20028;-78
2021/04/29 12:18:32;;;;;;;23.33;8.43;;;666.00;1459.20;;;;;;5037038;28;20057;-79
2021/04/29 12:21:00;;;;;;;18.35;6.57;;;665.90;1459.20;;;;;;5055937;28;20020;-79
2021/04/29 12:23:26;;;;;;;13.38;8.02;;;665.70;1484.80;;;;;;5055057;28;20024;-78
2021/04/29 12:26:03;;;;;;;24.85;6.78;;;691.40;1433.60;;;;;;5037884;28;20040;-79
2021/04/29 12:28:34;;;;;;;30.42;7.80;;;666.50;1433.60;;;;;;5037805;28;20044;-79
2021/04/29 12:31:15;;;;;;;39.80;8.80;;;666.30;1433.60;;;;;;5037792;28;20025;-79
2021/04/29 12:33:54;;;;;;;32.67;8.75;;;666.20;1459.20;;;;;;5038032;28;20040;-80
2021/04/29 12:36:22;;;;;;;13.57;5.63;;;666.00;1459.20;;;;;;5026653;28;20032;-81
2021/04/29 12:38:48;;;;;;;11.13;5.45;;;665.90;1459.20;;;;;;5051528;28;20104;-79
2021/04/29 12:41:15;;;;;;;20.80;9.10;;;665.70;1459.20;;;;;;5055342;28;20456;-80
2021/04/29 12:43:40;;;;;;;28.73;8.48;;;665.60;1484.80;;;;;;5055641;28;20020;-81
2021/04/29 12:46:06;;;;;;;14.10;5.15;;;640.90;1459.20;;;;;;5037763;28;20111;-80
2021/04/29 12:48:40;;;;;;;12.43;5.32;;;640.70;1459.20;;;;;;5037377;28;20142;-79
2021/04/29 12:51:08;;;;;;;16.67;6.15;;;640.60;1459.20;;;;;;5037705;28;20024;-81
2021/04/29 12:53:36;;;;;;;17.48;5.22;;;640.60;1484.80;;;;;;5037600;28;20017;-81
2021/04/29 12:56:03;;;;;;;9.50;5.22;;;640.50;1484.80;;;;;;5054891;28;20063;-80
2021/04/29 12:58:31;;;;;;;14.15;5.63;;;665.90;1459.20;;;;;;5037520;28;20028;-80
2021/04/29 13:00:58;;;;;;;10.35;4.68;;;665.60;1484.80;;;;;;5037544;28;20079;-81
2021/04/29 13:03:42;;;;;;;18.55;5.90;;;640.90;1484.80;;;;;;5037238;28;20025;-80
2021/04/29 13:06:11;;;;;;;15.38;6.18;;;640.90;1459.20;;;;;;5037510;28;20056;-80
2021/04/29 13:08:47;;;;;;;12.88;6.38;;;665.70;1459.20;;;;;;5037388;28;20021;-80
2021/04/29 13:11:12;;;;;;;10.48;5.05;;;666.20;1459.20;;;;;;5037540;28;20029;-78
2021/04/29 13:13:39;;;;;;;38.03;8.48;;;666.00;1433.60;;;;;;5037106;28;20427;-77
2021/04/29 13:16:04;;;;;;;16.60;5.80;;;665.90;1433.60;;;;;;5037639;28;20024;-78
2021/04/29 13:18:30;;;;;;;13.85;6.63;;;665.70;1433.60;;;;;;5037123;28;20021;-78
2021/04/29 13:20:56;;;;;;;11.38;5.43;;;665.60;1459.20;;;;;;5037096;28;20045;-78
2021/04/29 13:23:22;;;;;;;16.90;7.93;;;640.90;1433.60;;;;;;5036804;28;20430;-77
2021/04/29 13:25:49;;;;;;;62.70;18.13;;;640.90;1459.20;;;;;;5037016;28;20032;-78
2021/04/29 13:28:15;;;;;;;33.58;11.60;;;640.90;1484.80;;;;;;5036571;28;20068;-78
2021/04/29 13:30:42;;;;;;;26.88;9.70;;;640.90;1459.20;;;;;;5036711;28;20017;-79
2021/04/29 13:33:10;;;;;;;17.65;10.02;;;665.70;1484.80;;;;;;5036889;28;20480;-79
2021/04/29 13:35:36;;;;;;;29.42;11.00;;;665.90;1484.80;;;;;;5054441;28;20028;-79
2021/04/29 13:38:02;;;;;;;24.40;8.40;;;666.20;1459.20;;;;;;5036516;28;20025;-79
2021/04/29 13:40:28;;;;;;;28.55;10.10;;;666.20;1433.60;;;;;;5036787;28;20487;-79
2021/04/29 13:42:54;;;;;;;27.80;7.30;;;666.20;1459.20;;;;;;5037303;28;20025;-79
2021/04/29 13:45:20;;;;;;;20.30;7.07;;;666.00;1433.60;;;;;;5024599;28;20464;-79
2021/04/29 13:47:46;;;;;;;17.55;4.47;;;665.90;1433.60;;;;;;5033111;28;20021;-78
2021/04/29 13:50:12;;;;;;;15.25;4.72;;;665.90;1433.60;;;;;;5051881;28;20025;-78
2021/04/29 13:52:38;;;;;;;17.17;6.30;;;665.70;1433.60;;;;;;5053950;28;20049;-78